sensor_id;sensor_type;location;lat;lon;timestamp;pressure;altitude;pressure_sealevel;temperature;humidity
45078;BME280;60508;42.622;25.416;2023-02-16T00:01:45;98035.34;;;3.08;56.41
45078;BME280;60508;42.622;25.416;2023-02-16T00:04:19;98036.50;;;3.31;56.13
45078;BME280;60508;42.622;25.416;2023-02-16T00:06:45;98026.03;;;3.29;55.78
45078;BME280;60508;42.622;25.416;2023-02-16T00:09:12;98027.22;;;3.26;55.62
45078;BME280;60508;42.622;25.416;2023-02-16T00:11:38;98028.69;;;3.13;56.17
45078;BME280;60508;42.622;25.416;2023-02-16T00:14:23;98023.75;;;3.42;55.47
45078;BME280;60508;42.622;25.416;2023-02-16T00:16:57;98019.06;;;3.53;54.37
45078;BME280;60508;42.622;25.416;2023-02-16T00:21:53;98031.34;;;3.45;53.01
45078;BME280;60508;42.622;25.416;2023-02-16T00:24:20;98020.38;;;3.48;54.30
45078;BME280;60508;42.622;25.416;2023-02-16T00:26:47;98023.69;;;3.75;52.17
45078;BME280;60508;42.622;25.416;2023-02-16T00:29:18;98029.72;;;3.36;52.95
45078;BME280;60508;42.622;25.416;2023-02-16T00:31:44;98031.34;;;2.96;54.02
45078;BME280;60508;42.622;25.416;2023-02-16T00:34:27;98023.50;;;2.62;55.99
45078;BME280;60508;42.622;25.416;2023-02-16T00:36:55;98031.28;;;2.63;56.61
45078;BME280;60508;42.622;25.416;2023-02-16T00:39:22;98025.00;;;2.89;55.83
45078;BME280;60508;42.622;25.416;2023-02-16T00:41:50;98017.81;;;2.56;56.28
45078;BME280;60508;42.622;25.416;2023-02-16T00:47:22;98021.66;;;2.62;56.27
45078;BME280;60508;42.622;25.416;2023-02-16T00:49:50;98006.78;;;2.27;57.51
45078;BME280;60508;42.622;25.416;2023-02-16T00:54:49;98009.31;;;2.36;58.15
45078;BME280;60508;42.622;25.416;2023-02-16T00:57:17;98003.03;;;2.37;58.19
45078;BME280;60508;42.622;25.416;2023-02-16T00:59:44;98004.50;;;2.32;58.69
45078;BME280;60508;42.622;25.416;2023-02-16T01:02:11;97999.94;;;2.16;59.06
45078;BME280;60508;42.622;25.416;2023-02-16T01:04:37;98000.56;;;2.01;59.66
45078;BME280;60508;42.622;25.416;2023-02-16T01:07:10;97994.63;;;1.73;61.51
45078;BME280;60508;42.622;25.416;2023-02-16T01:09:55;97990.97;;;1.74;61.27
45078;BME280;60508;42.622;25.416;2023-02-16T01:12:40;97989.69;;;1.78;61.50
45078;BME280;60508;42.622;25.416;2023-02-16T01:15:12;97993.00;;;1.80;61.98
45078;BME280;60508;42.622;25.416;2023-02-16T01:17:38;97984.06;;;1.81;61.87
45078;BME280;60508;42.622;25.416;2023-02-16T01:20:16;97987.09;;;1.95;62.30
45078;BME280;60508;42.622;25.416;2023-02-16T01:22:42;97982.59;;;2.22;61.55
45078;BME280;60508;42.622;25.416;2023-02-16T01:25:09;97987.06;;;2.29;59.68
45078;BME280;60508;42.622;25.416;2023-02-16T01:27:36;97988.78;;;1.96;61.14
45078;BME280;60508;42.622;25.416;2023-02-16T01:30:04;97980.22;;;2.10;60.75
45078;BME280;60508;42.622;25.416;2023-02-16T01:32:30;97981.38;;;2.16;60.93
45078;BME280;60508;42.622;25.416;2023-02-16T01:34:58;97980.25;;;2.18;60.78
45078;BME280;60508;42.622;25.416;2023-02-16T01:37:24;97987.84;;;2.13;60.82
45078;BME280;60508;42.622;25.416;2023-02-16T01:39:50;97969.06;;;1.98;60.40
45078;BME280;60508;42.622;25.416;2023-02-16T01:43:41;97983.34;;;2.06;60.38
45078;BME280;60508;42.622;25.416;2023-02-16T01:45:42;97982.97;;;1.92;61.19
45078;BME280;60508;42.622;25.416;2023-02-16T01:48:23;97988.75;;;1.88;61.03
45078;BME280;60508;42.622;25.416;2023-02-16T01:51:09;97984.78;;;1.92;61.31
45078;BME280;60508;42.622;25.416;2023-02-16T01:53:57;97988.28;;;1.92;61.48
45078;BME280;60508;42.622;25.416;2023-02-16T01:56:53;97983.63;;;1.94;61.44
45078;BME280;60508;42.622;25.416;2023-02-16T02:01:55;97986.22;;;1.78;62.25
45078;BME280;60508;42.622;25.416;2023-02-16T02:04:26;97984.88;;;1.82;61.84
45078;BME280;60508;42.622;25.416;2023-02-16T02:07:31;97994.22;;;1.60;62.83
45078;BME280;60508;42.622;25.416;2023-02-16T02:10:10;97984.25;;;1.54;63.83
45078;BME280;60508;42.622;25.416;2023-02-16T02:12:47;97992.81;;;1.74;63.08
45078;BME280;60508;42.622;25.416;2023-02-16T02:15:17;97981.88;;;1.77;62.60
45078;BME280;60508;42.622;25.416;2023-02-16T02:17:44;97988.44;;;1.91;61.97
45078;BME280;60508;42.622;25.416;2023-02-16T02:20:56;97983.16;;;1.99;61.91
45078;BME280;60508;42.622;25.416;2023-02-16T02:29:50;97989.91;;;1.93;62.11
45078;BME280;60508;42.622;25.416;2023-02-16T02:35:14;97981.03;;;1.68;62.53
45078;BME280;60508;42.622;25.416;2023-02-16T02:41:32;97974.31;;;1.56;62.91
45078;BME280;60508;42.622;25.416;2023-02-16T02:43:43;97976.56;;;1.42;62.35
45078;BME280;60508;42.622;25.416;2023-02-16T02:46:16;97978.09;;;1.27;63.12
45078;BME280;60508;42.622;25.416;2023-02-16T02:48:46;97986.00;;;1.19;64.07
45078;BME280;60508;42.622;25.416;2023-02-16T02:51:15;97975.13;;;1.04;64.44
45078;BME280;60508;42.622;25.416;2023-02-16T02:54:10;97977.78;;;1.04;64.83
45078;BME280;60508;42.622;25.416;2023-02-16T02:57:17;97968.13;;;0.77;65.83
45078;BME280;60508;42.622;25.416;2023-02-16T03:00:41;97977.53;;;1.15;65.87
45078;BME280;60508;42.622;25.416;2023-02-16T03:03:24;97981.75;;;1.08;64.67
45078;BME280;60508;42.622;25.416;2023-02-16T03:06:02;97970.19;;;1.09;65.08
45078;BME280;60508;42.622;25.416;2023-02-16T03:08:31;97982.22;;;1.21;64.53
45078;BME280;60508;42.622;25.416;2023-02-16T03:11:08;97984.38;;;1.26;64.56
45078;BME280;60508;42.622;25.416;2023-02-16T03:13:58;97984.25;;;1.09;65.08
45078;BME280;60508;42.622;25.416;2023-02-16T03:16:34;97980.44;;;0.86;66.28
45078;BME280;60508;42.622;25.416;2023-02-16T03:19:04;97972.34;;;1.05;66.68
45078;BME280;60508;42.622;25.416;2023-02-16T03:21:50;97978.94;;;1.27;66.30
45078;BME280;60508;42.622;25.416;2023-02-16T03:24:35;97963.31;;;1.42;66.17
45078;BME280;60508;42.622;25.416;2023-02-16T03:27:26;97974.00;;;1.59;65.70
45078;BME280;60508;42.622;25.416;2023-02-16T03:30:13;97981.88;;;1.77;65.04
45078;BME280;60508;42.622;25.416;2023-02-16T03:32:40;97983.25;;;1.81;64.23
45078;BME280;60508;42.622;25.416;2023-02-16T03:35:06;97983.63;;;1.94;64.63
45078;BME280;60508;42.622;25.416;2023-02-16T03:37:34;97979.13;;;1.87;62.82
45078;BME280;60508;42.622;25.416;2023-02-16T03:40:00;97974.16;;;1.92;62.85
45078;BME280;60508;42.622;25.416;2023-02-16T03:42:50;97974.91;;;2.10;61.36
45078;BME280;60508;42.622;25.416;2023-02-16T03:45:17;97973.72;;;2.05;60.71
45078;BME280;60508;42.622;25.416;2023-02-16T03:47:43;97978.69;;;1.99;61.80
45078;BME280;60508;42.622;25.416;2023-02-16T03:50:09;97988.34;;;2.09;61.69
45078;BME280;60508;42.622;25.416;2023-02-16T03:52:35;97986.00;;;2.06;61.95
45078;BME280;60508;42.622;25.416;2023-02-16T03:55:01;97987.56;;;1.90;62.38
45078;BME280;60508;42.622;25.416;2023-02-16T03:57:27;97992.38;;;1.87;63.36
45078;BME280;60508;42.622;25.416;2023-02-16T03:59:53;97987.22;;;1.51;64.26
45078;BME280;60508;42.622;25.416;2023-02-16T04:02:20;97990.94;;;0.96;66.88
45078;BME280;60508;42.622;25.416;2023-02-16T04:04:47;97984.81;;;0.59;68.48
45078;BME280;60508;42.622;25.416;2023-02-16T04:07:13;97987.91;;;0.72;68.75
45078;BME280;60508;42.622;25.416;2023-02-16T04:09:39;97994.78;;;0.83;68.10
45078;BME280;60508;42.622;25.416;2023-02-16T04:12:05;97983.91;;;0.86;67.68
45078;BME280;60508;42.622;25.416;2023-02-16T04:14:50;97983.03;;;0.78;67.80
45078;BME280;60508;42.622;25.416;2023-02-16T04:17:16;97982.63;;;0.90;67.44
45078;BME280;60508;42.622;25.416;2023-02-16T04:19:42;97986.84;;;1.01;67.23
45078;BME280;60508;42.622;25.416;2023-02-16T04:22:08;97964.09;;;1.08;66.60
45078;BME280;60508;42.622;25.416;2023-02-16T04:24:35;97970.56;;;1.40;65.16
45078;BME280;60508;42.622;25.416;2023-02-16T04:27:01;97968.16;;;1.47;64.90
45078;BME280;60508;42.622;25.416;2023-02-16T04:29:27;97972.81;;;1.53;64.85
45078;BME280;60508;42.622;25.416;2023-02-16T04:31:54;97965.25;;;1.58;64.19
45078;BME280;60508;42.622;25.416;2023-02-16T04:34:20;97973.31;;;1.31;64.06
45078;BME280;60508;42.622;25.416;2023-02-16T04:36:46;97973.84;;;0.90;65.89
45078;BME280;60508;42.622;25.416;2023-02-16T04:39:11;97986.91;;;1.09;66.22
45078;BME280;60508;42.622;25.416;2023-02-16T04:41:37;97979.13;;;1.08;65.71
45078;BME280;60508;42.622;25.416;2023-02-16T04:44:03;97971.22;;;1.16;65.32
45078;BME280;60508;42.622;25.416;2023-02-16T04:46:30;97983.31;;;0.93;65.95
45078;BME280;60508;42.622;25.416;2023-02-16T04:48:57;97991.03;;;0.68;66.24
45078;BME280;60508;42.622;25.416;2023-02-16T04:51:24;97989.84;;;1.06;65.63
45078;BME280;60508;42.622;25.416;2023-02-16T04:53:50;97990.16;;;1.21;65.31
45078;BME280;60508;42.622;25.416;2023-02-16T04:56:16;97970.63;;;1.22;64.81
45078;BME280;60508;42.622;25.416;2023-02-16T04:58:42;98002.34;;;1.40;64.55
45078;BME280;60508;42.622;25.416;2023-02-16T05:01:08;98001.75;;;1.46;64.22
45078;BME280;60508;42.622;25.416;2023-02-16T05:03:34;98000.75;;;1.48;63.93
45078;BME280;60508;42.622;25.416;2023-02-16T05:06:00;98009.22;;;1.51;63.81
45078;BME280;60508;42.622;25.416;2023-02-16T05:08:26;97996.66;;;1.53;64.08
45078;BME280;60508;42.622;25.416;2023-02-16T05:10:52;98004.63;;;1.61;63.42
45078;BME280;60508;42.622;25.416;2023-02-16T05:13:37;97998.22;;;1.64;63.84
45078;BME280;60508;42.622;25.416;2023-02-16T05:16:23;97992.81;;;1.74;63.74
45078;BME280;60508;42.622;25.416;2023-02-16T05:18:49;97999.50;;;1.86;63.27
45078;BME280;60508;42.622;25.416;2023-02-16T05:21:15;97995.38;;;1.92;63.37
45078;BME280;60508;42.622;25.416;2023-02-16T05:24:04;98000.19;;;1.96;62.67
45078;BME280;60508;42.622;25.416;2023-02-16T05:26:33;98007.03;;;1.99;62.91
45078;BME280;60508;42.622;25.416;2023-02-16T05:28:59;98005.97;;;1.92;62.48
45078;BME280;60508;42.622;25.416;2023-02-16T05:31:25;98009.13;;;1.95;62.61
45078;BME280;60508;42.622;25.416;2023-02-16T05:33:51;98012.16;;;2.00;62.73
45078;BME280;60508;42.622;25.416;2023-02-16T05:36:18;98006.38;;;2.05;62.37
45078;BME280;60508;42.622;25.416;2023-02-16T05:38:44;98012.38;;;2.15;62.67
45078;BME280;60508;42.622;25.416;2023-02-16T05:41:10;98018.53;;;2.24;62.11
45078;BME280;60508;42.622;25.416;2023-02-16T05:44:08;98010.78;;;2.31;62.02
45078;BME280;60508;42.622;25.416;2023-02-16T05:46:35;98006.16;;;2.33;61.78
45078;BME280;60508;42.622;25.416;2023-02-16T05:49:02;98016.34;;;2.54;60.96
45078;BME280;60508;42.622;25.416;2023-02-16T05:51:29;98019.34;;;2.67;60.36
45078;BME280;60508;42.622;25.416;2023-02-16T05:53:56;98017.97;;;2.55;59.88
45078;BME280;60508;42.622;25.416;2023-02-16T05:56:22;98021.47;;;2.55;59.87
45078;BME280;60508;42.622;25.416;2023-02-16T05:58:48;98017.13;;;2.46;60.25
45078;BME280;60508;42.622;25.416;2023-02-16T06:01:14;98021.97;;;2.51;60.49
45078;BME280;60508;42.622;25.416;2023-02-16T06:03:41;98023.97;;;2.57;60.49
45078;BME280;60508;42.622;25.416;2023-02-16T06:06:07;98024.97;;;2.64;60.48
45078;BME280;60508;42.622;25.416;2023-02-16T06:08:35;98030.94;;;2.66;60.16
45078;BME280;60508;42.622;25.416;2023-02-16T06:11:01;98037.94;;;2.76;60.08
45078;BME280;60508;42.622;25.416;2023-02-16T06:13:27;98043.09;;;2.85;59.89
45078;BME280;60508;42.622;25.416;2023-02-16T06:15:55;98046.94;;;2.91;59.46
45078;BME280;60508;42.622;25.416;2023-02-16T06:18:22;98049.28;;;3.02;59.13
45078;BME280;60508;42.622;25.416;2023-02-16T06:20:49;98047.75;;;2.75;59.87
45078;BME280;60508;42.622;25.416;2023-02-16T06:23:15;98053.41;;;2.97;59.43
45078;BME280;60508;42.622;25.416;2023-02-16T06:25:48;98062.41;;;3.20;58.82
45078;BME280;60508;42.622;25.416;2023-02-16T06:28:14;98058.44;;;3.49;58.18
45078;BME280;60508;42.622;25.416;2023-02-16T06:30:40;98061.41;;;3.71;57.17
45078;BME280;60508;42.622;25.416;2023-02-16T06:33:07;98063.22;;;3.78;56.62
45078;BME280;60508;42.622;25.416;2023-02-16T06:35:33;98067.03;;;3.76;56.66
45078;BME280;60508;42.622;25.416;2023-02-16T06:37:59;98071.53;;;3.75;56.69
45078;BME280;60508;42.622;25.416;2023-02-16T06:40:25;98063.25;;;3.70;57.04
45078;BME280;60508;42.622;25.416;2023-02-16T06:42:51;98067.53;;;3.71;57.03
45078;BME280;60508;42.622;25.416;2023-02-16T06:45:17;98075.00;;;3.76;57.15
45078;BME280;60508;42.622;25.416;2023-02-16T06:47:43;98064.53;;;3.82;57.04
45078;BME280;60508;42.622;25.416;2023-02-16T06:50:09;98072.50;;;3.99;56.05
45078;BME280;60508;42.622;25.416;2023-02-16T06:52:35;98067.66;;;4.02;55.68
45078;BME280;60508;42.622;25.416;2023-02-16T06:55:02;98067.50;;;4.04;56.12
45078;BME280;60508;42.622;25.416;2023-02-16T06:57:28;98075.28;;;4.14;55.42
45078;BME280;60508;42.622;25.416;2023-02-16T06:59:54;98072.94;;;4.19;55.50
45078;BME280;60508;42.622;25.416;2023-02-16T07:02:21;98075.25;;;4.22;55.60
45078;BME280;60508;42.622;25.416;2023-02-16T07:04:47;98083.03;;;4.32;54.93
45078;BME280;60508;42.622;25.416;2023-02-16T07:07:13;98084.00;;;4.39;54.99
45078;BME280;60508;42.622;25.416;2023-02-16T07:09:39;98076.88;;;4.39;54.50
45078;BME280;60508;42.622;25.416;2023-02-16T07:12:05;98076.19;;;4.37;54.76
45078;BME280;60508;42.622;25.416;2023-02-16T07:14:32;98078.50;;;4.41;54.88
45078;BME280;60508;42.622;25.416;2023-02-16T07:16:58;98071.00;;;4.52;54.36
45078;BME280;60508;42.622;25.416;2023-02-16T07:19:29;98065.47;;;4.62;54.52
45078;BME280;60508;42.622;25.416;2023-02-16T07:21:58;98055.06;;;4.75;53.94
45078;BME280;60508;42.622;25.416;2023-02-16T07:24:24;98070.25;;;4.98;53.36
45078;BME280;60508;42.622;25.416;2023-02-16T07:26:50;98056.66;;;4.93;52.69
45078;BME280;60508;42.622;25.416;2023-02-16T07:29:16;98072.16;;;5.12;52.68
45078;BME280;60508;42.622;25.416;2023-02-16T07:31:42;98067.91;;;5.26;52.30
45078;BME280;60508;42.622;25.416;2023-02-16T07:34:07;98067.50;;;5.38;51.67
45078;BME280;60508;42.622;25.416;2023-02-16T07:36:33;98059.31;;;5.39;51.83
45078;BME280;60508;42.622;25.416;2023-02-16T07:39:00;98057.59;;;5.46;51.49
45078;BME280;60508;42.622;25.416;2023-02-16T07:41:26;98062.44;;;5.66;51.78
45078;BME280;60508;42.622;25.416;2023-02-16T07:43:52;98060.22;;;5.70;51.91
45078;BME280;60508;42.622;25.416;2023-02-16T07:46:18;98063.16;;;5.75;51.53
45078;BME280;60508;42.622;25.416;2023-02-16T07:48:48;98067.97;;;5.79;50.93
45078;BME280;60508;42.622;25.416;2023-02-16T07:51:25;98065.53;;;5.93;51.08
45078;BME280;60508;42.622;25.416;2023-02-16T07:53:52;98062.31;;;5.97;50.64
45078;BME280;60508;42.622;25.416;2023-02-16T07:56:26;98064.09;;;6.05;49.93
45078;BME280;60508;42.622;25.416;2023-02-16T07:58:54;98065.03;;;6.12;50.22
45078;BME280;60508;42.622;25.416;2023-02-16T08:01:21;98053.81;;;6.17;49.86
45078;BME280;60508;42.622;25.416;2023-02-16T08:03:47;98056.53;;;6.38;49.75
45078;BME280;60508;42.622;25.416;2023-02-16T08:06:13;98059.66;;;6.57;49.44
45078;BME280;60508;42.622;25.416;2023-02-16T08:08:40;98056.97;;;6.72;48.97
45078;BME280;60508;42.622;25.416;2023-02-16T08:11:23;98047.66;;;6.68;48.58
45078;BME280;60508;42.622;25.416;2023-02-16T08:13:50;98058.00;;;7.07;48.46
45078;BME280;60508;42.622;25.416;2023-02-16T08:16:21;98056.06;;;7.23;47.32
45078;BME280;60508;42.622;25.416;2023-02-16T08:18:49;98057.88;;;7.37;47.00
45078;BME280;60508;42.622;25.416;2023-02-16T08:21:17;98052.44;;;7.52;46.64
45078;BME280;60508;42.622;25.416;2023-02-16T08:23:47;98053.28;;;7.81;45.60
45078;BME280;60508;42.622;25.416;2023-02-16T08:26:17;98061.19;;;8.17;44.63
45078;BME280;60508;42.622;25.416;2023-02-16T08:28:47;98055.41;;;8.49;43.69
45078;BME280;60508;42.622;25.416;2023-02-16T08:31:17;98064.31;;;8.56;43.92
45078;BME280;60508;42.622;25.416;2023-02-16T08:33:44;98057.47;;;8.53;43.45
45078;BME280;60508;42.622;25.416;2023-02-16T08:38:43;98050.41;;;8.87;43.11
45078;BME280;60508;42.622;25.416;2023-02-16T08:41:10;98058.56;;;9.41;42.66
45078;BME280;60508;42.622;25.416;2023-02-16T08:43:35;98031.34;;;9.71;41.32
45078;BME280;60508;42.622;25.416;2023-02-16T08:46:01;98040.50;;;10.62;40.28
45078;BME280;60508;42.622;25.416;2023-02-16T08:48:28;98051.59;;;11.81;37.92
45078;BME280;60508;42.622;25.416;2023-02-16T08:51:01;98052.69;;;13.09;35.97
45078;BME280;60508;42.622;25.416;2023-02-16T08:53:28;98056.81;;;13.96;34.21
45078;BME280;60508;42.622;25.416;2023-02-16T08:56:02;98049.38;;;15.44;31.87
45078;BME280;60508;42.622;25.416;2023-02-16T08:58:29;98053.84;;;15.84;30.68
45078;BME280;60508;42.622;25.416;2023-02-16T09:00:56;98063.25;;;16.49;29.75
45078;BME280;60508;42.622;25.416;2023-02-16T09:03:23;98055.94;;;17.38;28.62
45078;BME280;60508;42.622;25.416;2023-02-16T09:05:51;98060.63;;;18.88;27.00
45078;BME280;60508;42.622;25.416;2023-02-16T09:08:19;98060.78;;;19.60;25.50
45078;BME280;60508;42.622;25.416;2023-02-16T09:10:46;98067.06;;;20.42;24.15
45078;BME280;60508;42.622;25.416;2023-02-16T09:13:12;98070.56;;;21.84;22.69
45078;BME280;60508;42.622;25.416;2023-02-16T09:15:42;98073.56;;;23.24;21.66
45078;BME280;60508;42.622;25.416;2023-02-16T09:18:09;98073.94;;;25.28;19.57
45078;BME280;60508;42.622;25.416;2023-02-16T09:20:41;98070.63;;;23.58;20.11
45078;BME280;60508;42.622;25.416;2023-02-16T09:23:08;98076.84;;;25.60;19.18
45078;BME280;60508;42.622;25.416;2023-02-16T09:25:37;98072.16;;;28.27;16.68
45078;BME280;60508;42.622;25.416;2023-02-16T09:28:04;98076.47;;;28.54;15.59
45078;BME280;60508;42.622;25.416;2023-02-16T09:30:32;98083.09;;;29.90;15.47
45078;BME280;60508;42.622;25.416;2023-02-16T09:32:59;98078.97;;;31.49;14.23
45078;BME280;60508;42.622;25.416;2023-02-16T09:35:25;98065.25;;;31.16;13.97
45078;BME280;60508;42.622;25.416;2023-02-16T09:37:51;98062.91;;;31.43;13.46
45078;BME280;60508;42.622;25.416;2023-02-16T09:40:18;98064.22;;;33.06;12.75
45078;BME280;60508;42.622;25.416;2023-02-16T09:45:30;98076.72;;;34.23;11.62
45078;BME280;60508;42.622;25.416;2023-02-16T09:48:00;98068.28;;;32.33;12.38
45078;BME280;60508;42.622;25.416;2023-02-16T09:50:28;98064.25;;;33.77;11.94
45078;BME280;60508;42.622;25.416;2023-02-16T09:53:16;98062.41;;;34.24;11.50
45078;BME280;60508;42.622;25.416;2023-02-16T09:55:53;98043.59;;;30.48;12.89
45078;BME280;60508;42.622;25.416;2023-02-16T09:58:35;98056.59;;;30.01;13.77
45078;BME280;60508;42.622;25.416;2023-02-16T10:01:13;98042.88;;;32.63;11.88
45078;BME280;60508;42.622;25.416;2023-02-16T10:09:59;98041.41;;;32.09;12.47
45078;BME280;60508;42.622;25.416;2023-02-16T10:12:32;98033.91;;;33.56;11.97
45078;BME280;60508;42.622;25.416;2023-02-16T10:15:06;98032.19;;;33.32;11.60
45078;BME280;60508;42.622;25.416;2023-02-16T10:22:48;98018.50;;;35.44;10.61
45078;BME280;60508;42.622;25.416;2023-02-16T10:25:20;98021.44;;;35.85;10.08
45078;BME280;60508;42.622;25.416;2023-02-16T10:27:51;98013.91;;;31.63;12.20
45078;BME280;60508;42.622;25.416;2023-02-16T10:30:21;98012.66;;;34.99;10.84
45078;BME280;60508;42.622;25.416;2023-02-16T10:32:58;98005.81;;;36.63;9.60
45078;BME280;60508;42.622;25.416;2023-02-16T10:35:56;98011.13;;;38.18;9.08
45078;BME280;60508;42.622;25.416;2023-02-16T10:38:33;98015.97;;;38.36;9.06
45078;BME280;60508;42.622;25.416;2023-02-16T10:41:14;98017.59;;;38.55;8.84
45078;BME280;60508;42.622;25.416;2023-02-16T10:44:03;97998.66;;;38.12;8.97
45078;BME280;60508;42.622;25.416;2023-02-16T10:46:38;97994.31;;;37.23;9.37
45078;BME280;60508;42.622;25.416;2023-02-16T10:49:10;97999.47;;;38.02;8.78
45078;BME280;60508;42.622;25.416;2023-02-16T10:51:37;97994.38;;;36.75;9.27
45078;BME280;60508;42.622;25.416;2023-02-16T10:54:16;98002.31;;;38.20;8.82
45078;BME280;60508;42.622;25.416;2023-02-16T10:56:48;97996.03;;;39.98;8.02
45078;BME280;60508;42.622;25.416;2023-02-16T10:59:20;97995.41;;;41.30;6.92
45078;BME280;60508;42.622;25.416;2023-02-16T11:01:52;97989.03;;;36.63;9.58
45078;BME280;60508;42.622;25.416;2023-02-16T11:09:31;97975.00;;;35.16;10.02
45078;BME280;60508;42.622;25.416;2023-02-16T11:11:58;97980.88;;;37.65;9.36
45078;BME280;60508;42.622;25.416;2023-02-16T11:14:27;97965.75;;;37.88;8.70
45078;BME280;60508;42.622;25.416;2023-02-16T11:17:10;97958.94;;;36.08;9.97
45078;BME280;60508;42.622;25.416;2023-02-16T11:19:51;97960.66;;;36.64;10.17
45078;BME280;60508;42.622;25.416;2023-02-16T11:22:34;97958.69;;;33.56;12.08
45078;BME280;60508;42.622;25.416;2023-02-16T11:25:28;97953.09;;;35.82;10.20
45078;BME280;60508;42.622;25.416;2023-02-16T11:27:59;97947.63;;;36.34;9.20
45078;BME280;60508;42.622;25.416;2023-02-16T11:30:38;97934.97;;;36.07;9.17
45078;BME280;60508;42.622;25.416;2023-02-16T11:33:23;97946.16;;;37.98;8.82
45078;BME280;60508;42.622;25.416;2023-02-16T11:35:52;97935.38;;;38.62;8.34
45078;BME280;60508;42.622;25.416;2023-02-16T11:38:25;97935.25;;;36.87;8.58
45078;BME280;60508;42.622;25.416;2023-02-16T11:40:52;97937.38;;;38.32;8.34
45078;BME280;60508;42.622;25.416;2023-02-16T11:43:19;97928.13;;;38.57;8.55
45078;BME280;60508;42.622;25.416;2023-02-16T11:46:17;97935.34;;;38.83;7.85
45078;BME280;60508;42.622;25.416;2023-02-16T11:48:43;97921.25;;;39.01;7.92
45078;BME280;60508;42.622;25.416;2023-02-16T11:51:10;97931.06;;;40.76;6.97
45078;BME280;60508;42.622;25.416;2023-02-16T11:53:39;97929.38;;;39.80;7.45
45078;BME280;60508;42.622;25.416;2023-02-16T11:56:27;97914.56;;;39.69;7.85
45078;BME280;60508;42.622;25.416;2023-02-16T11:59:19;97914.34;;;40.99;7.26
45078;BME280;60508;42.622;25.416;2023-02-16T12:10:11;97881.97;;;40.77;7.13
45078;BME280;60508;42.622;25.416;2023-02-16T12:23:32;97873.41;;;35.65;9.49
45078;BME280;60508;42.622;25.416;2023-02-16T12:35:12;97863.59;;;38.17;8.06
45078;BME280;60508;42.622;25.416;2023-02-16T12:37:57;97858.78;;;38.32;7.84
45078;BME280;60508;42.622;25.416;2023-02-16T12:45:37;97851.03;;;36.62;8.61
45078;BME280;60508;42.622;25.416;2023-02-16T12:50:54;97843.75;;;35.54;9.21
45078;BME280;60508;42.622;25.416;2023-02-16T12:53:32;97828.25;;;33.85;10.40
45078;BME280;60508;42.622;25.416;2023-02-16T12:56:07;97820.47;;;33.52;10.39
45078;BME280;60508;42.622;25.416;2023-02-16T12:58:43;97819.66;;;35.42;9.81
45078;BME280;60508;42.622;25.416;2023-02-16T13:01:19;97828.34;;;36.19;8.96
45078;BME280;60508;42.622;25.416;2023-02-16T13:03:54;97818.91;;;35.45;9.42
45078;BME280;60508;42.622;25.416;2023-02-16T13:06:28;97820.91;;;35.86;9.61
45078;BME280;60508;42.622;25.416;2023-02-16T13:09:05;97819.44;;;37.57;8.91
45078;BME280;60508;42.622;25.416;2023-02-16T13:11:39;97819.03;;;37.58;8.37
45078;BME280;60508;42.622;25.416;2023-02-16T13:14:29;97805.44;;;38.32;7.95
45078;BME280;60508;42.622;25.416;2023-02-16T13:16:58;97811.78;;;38.54;7.86
45078;BME280;60508;42.622;25.416;2023-02-16T13:19:26;97813.94;;;39.32;7.60
45078;BME280;60508;42.622;25.416;2023-02-16T13:27:31;97800.53;;;37.28;8.57
45078;BME280;60508;42.622;25.416;2023-02-16T13:35:31;97796.34;;;34.63;9.69
45078;BME280;60508;42.622;25.416;2023-02-16T13:38:08;97794.00;;;34.95;9.65
45078;BME280;60508;42.622;25.416;2023-02-16T13:40:48;97796.44;;;36.24;9.14
45078;BME280;60508;42.622;25.416;2023-02-16T13:43:31;97782.47;;;35.34;9.22
45078;BME280;60508;42.622;25.416;2023-02-16T13:46:16;97782.19;;;32.51;10.77
45078;BME280;60508;42.622;25.416;2023-02-16T13:48:47;97782.91;;;34.15;10.11
45078;BME280;60508;42.622;25.416;2023-02-16T13:51:17;97783.09;;;34.02;10.16
45078;BME280;60508;42.622;25.416;2023-02-16T13:53:54;97766.78;;;34.58;9.80
45078;BME280;60508;42.622;25.416;2023-02-16T13:56:32;97774.84;;;32.07;11.24
45078;BME280;60508;42.622;25.416;2023-02-16T14:01:54;97771.91;;;32.51;11.22
45078;BME280;60508;42.622;25.416;2023-02-16T14:20:23;97762.25;;;31.62;11.50
45078;BME280;60508;42.622;25.416;2023-02-16T14:22:52;97756.56;;;31.26;12.16
45078;BME280;60508;42.622;25.416;2023-02-16T14:35:43;97752.38;;;29.24;13.22
45078;BME280;60508;42.622;25.416;2023-02-16T14:38:25;97738.97;;;28.81;13.53
45078;BME280;60508;42.622;25.416;2023-02-16T14:40:55;97749.53;;;29.58;13.04
45078;BME280;60508;42.622;25.416;2023-02-16T14:43:30;97736.53;;;27.56;14.61
45078;BME280;60508;42.622;25.416;2023-02-16T14:57:17;97743.25;;;20.12;21.33
45078;BME280;60508;42.622;25.416;2023-02-16T14:59:55;97724.00;;;18.92;22.99
45078;BME280;60508;42.622;25.416;2023-02-16T15:02:33;97728.47;;;17.83;24.26
45078;BME280;60508;42.622;25.416;2023-02-16T15:05:15;97729.53;;;17.14;25.43
45078;BME280;60508;42.622;25.416;2023-02-16T15:07:44;97733.97;;;16.55;26.53
45078;BME280;60508;42.622;25.416;2023-02-16T15:10:12;97738.91;;;16.31;27.12
45078;BME280;60508;42.622;25.416;2023-02-16T15:12:39;97739.13;;;15.97;27.59
45078;BME280;60508;42.622;25.416;2023-02-16T15:15:07;97743.41;;;15.49;27.90
45078;BME280;60508;42.622;25.416;2023-02-16T15:17:39;97734.75;;;15.74;27.78
45078;BME280;60508;42.622;25.416;2023-02-16T15:22:47;97745.63;;;16.56;27.13
45078;BME280;60508;42.622;25.416;2023-02-16T15:25:27;97752.75;;;16.94;26.74
45078;BME280;60508;42.622;25.416;2023-02-16T15:30:32;97751.25;;;16.82;26.89
45078;BME280;60508;42.622;25.416;2023-02-16T15:32:59;97747.34;;;16.35;27.62
45078;BME280;60508;42.622;25.416;2023-02-16T15:35:40;97753.75;;;16.23;27.86
45078;BME280;60508;42.622;25.416;2023-02-16T15:40:50;97744.25;;;15.55;28.58
45078;BME280;60508;42.622;25.416;2023-02-16T15:43:28;97758.44;;;14.84;29.44